Oriental Clematis — 9VJT5 — position and weather

sailwx.info

Track history (hours):
 
Tides and Currents Weather Stations Pressure Air Temp Water Temp Dewpoint Dewpoint Depression Visibility Wind Speed Wind Dir Waves Ship Positions

Oriental Clematis

Last reported at 2015-Mar-16 03:33 UTC. Time now 2015-Mar-29 12:30 UTC.
Position N 35°02' E 139°41'.
Warning: this ship's position is 13 days out of date.

Length 134 m; draft 5.6 m.

Type: Ship. MMSI: 565157000.

Date/timePositionNaut miles runAvg speedWind from/ knotsBaromVisibWave heightAir tempDewpointWater temp
2015-Mar-16 03:33N 35°02' E 139°41'1312.7
2015-Mar-16 02:33N 35°14' E 139°46'1010.4
2015-Mar-16 01:33N 35°24' E 139°43'13 0.4
2015-Mar-14 13:19N 35°32' E 139°56'810.1
2015-Mar-14 12:33N 35°26' E 139°49'10 9.7
2015-Mar-14 11:33N 35°17' E 139°45'1111.2
2015-Mar-14 10:33N 35°06' E 139°46'246 9.7
2015-Mar-13 09:15N 34°00' E 134°57'912.9
2015-Mar-13 08:33N 34°09' E 134°58'2411.9
2015-Mar-13 06:32N 34°30' E 135°13'6 5.8
2015-Mar-13 05:26N 34°26' E 135°19'0 0.0
2015-Mar-13 03:08N 34°26' E 135°19'0 0.0
2015-Mar-12 03:11N 34°26' E 135°19'3 4.7
2015-Mar-12 02:33N 34°28' E 135°17'10 9.7
2015-Mar-12 01:31N 34°24' E 135°06'1110.9
2015-Mar-12 00:31N 34°14' E 134°59'  
Track history (hours):
 
Tides and Currents Weather Stations Pressure Air Temp Water Temp Dewpoint Dewpoint Depression Visibility Wind Speed Wind Dir Waves Ship Positions

Oriental Clematis

Last reported at 2015-Mar-16 03:33 UTC. Time now 2015-Mar-29 12:30 UTC.
Position N 35°02' E 139°41'.
Warning: this ship's position is 13 days out of date.

Length 134 m; draft 5.6 m.

Type: Ship. MMSI: 565157000.

Date/timePositionNaut miles runAvg speedWind from/ knotsBaromVisibWave heightAir tempDewpointWater temp
2015-Mar-16 03:33N 35°02' E 139°41'1312.7
2015-Mar-16 02:33N 35°14' E 139°46'1010.4
2015-Mar-16 01:33N 35°24' E 139°43'13 0.4
2015-Mar-14 13:19N 35°32' E 139°56'810.1
2015-Mar-14 12:33N 35°26' E 139°49'10 9.7
2015-Mar-14 11:33N 35°17' E 139°45'1111.2
2015-Mar-14 10:33N 35°06' E 139°46'246 9.7
2015-Mar-13 09:15N 34°00' E 134°57'912.9
2015-Mar-13 08:33N 34°09' E 134°58'2411.9
2015-Mar-13 06:32N 34°30' E 135°13'6 5.8
2015-Mar-13 05:26N 34°26' E 135°19'0 0.0
2015-Mar-13 03:08N 34°26' E 135°19'0 0.0
2015-Mar-12 03:11N 34°26' E 135°19'3 4.7
2015-Mar-12 02:33N 34°28' E 135°17'10 9.7
2015-Mar-12 01:31N 34°24' E 135°06'1110.9
2015-Mar-12 00:31N 34°14' E 134°59'  

Dump ship's entire track history